Time;durP1;ratioP1;P1;durP2;ratioP2;P2;SDS_P1;SDS_P2;PMS_P1;PMS_P2;Temp;Humidity;BMP_temperature;BMP_pressure;BME280_temperature;BME280_humidity;BME280_pressure;Samples;Min_cycle;Max_cycle;Signal;HPM_P1;HPM_P2
2022/01/20 00:00:18;;;;;;;138.57;86.78;;;8.30;85.60;;;;;;5095330;28;20047;-86
2022/01/20 00:03:29;;;;;;;135.50;86.65;;;8.30;85.50;;;;;;5105730;28;20522;-87
2022/01/20 00:07:23;;;;;;;143.67;85.70;;;8.30;85.90;;;;;;5094961;28;20506;-85
2022/01/20 00:26:52;;;;;;;85.03;50.90;;;7.70;88.30;;;;;;5094018;28;20051;-87
2022/01/20 00:37:16;;;;;;;65.40;41.00;;;7.60;89.30;;;;;;5079456;28;20052;-85
2022/01/20 00:40:23;;;;;;;55.53;33.63;;;7.60;89.40;;;;;;5107223;28;20046;-86
2022/01/20 00:43:28;;;;;;;57.22;36.33;;;7.70;89.10;;;;;;5108389;28;20051;-86
2022/01/20 00:46:34;;;;;;;52.15;31.60;;;7.90;89.00;;;;;;5095030;28;20034;-86
2022/01/20 00:49:39;;;;;;;47.95;29.05;;;8.00;88.70;;;;;;5106273;28;20046;-86
2022/01/20 00:52:45;;;;;;;48.33;30.35;;;8.10;88.40;;;;;;5094274;28;20424;-86
2022/01/20 00:55:49;;;;;;;51.45;28.85;;;8.20;88.30;;;;;;5093882;28;20415;-86
2022/01/20 00:58:53;;;;;;;45.67;28.20;;;8.40;87.90;;;;;;5106703;28;20046;-85
2022/01/20 01:01:59;;;;;;;41.45;24.50;;;8.40;87.50;;;;;;5094385;28;20654;-86
2022/01/20 01:05:05;;;;;;;37.08;22.60;;;8.50;87.50;;;;;;5070005;28;20047;-85
2022/01/20 01:08:09;;;;;;;33.00;20.30;;;8.60;87.20;;;;;;5093598;28;20659;-86
2022/01/20 01:11:13;;;;;;;32.00;20.42;;;8.70;86.90;;;;;;5105863;28;20051;-86
2022/01/20 01:14:19;;;;;;;28.10;19.10;;;8.80;87.30;;;;;;5093868;28;20043;-86
2022/01/20 01:20:29;;;;;;;30.67;19.67;;;8.90;87.00;;;;;;5093814;28;20414;-86
2022/01/20 01:23:39;;;;;;;25.58;16.13;;;8.90;87.00;;;;;;5105938;28;20046;-85
2022/01/20 01:26:43;;;;;;;32.65;18.67;;;8.90;87.30;;;;;;5093404;28;20034;-86
2022/01/20 01:33:04;;;;;;;30.05;17.25;;;8.90;88.30;;;;;;5093443;28;20043;-85
2022/01/20 01:36:12;;;;;;;25.52;17.25;;;9.00;88.20;;;;;;5093680;28;20038;-85
2022/01/20 01:39:17;;;;;;;30.73;18.02;;;9.00;88.60;;;;;;5106987;28;20042;-87
2022/01/20 01:42:29;;;;;;;33.72;18.17;;;9.00;89.30;;;;;;5095106;28;20391;-86
2022/01/20 01:45:37;;;;;;;26.65;17.98;;;9.00;89.50;;;;;;5094285;28;20046;-86
2022/01/20 01:48:44;;;;;;;29.90;17.67;;;8.90;90.00;;;;;;5094302;28;20046;-86
2022/01/20 01:51:49;;;;;;;29.90;17.55;;;8.90;90.00;;;;;;5071749;28;20050;-86
2022/01/20 01:54:59;;;;;;;29.48;16.77;;;8.90;89.60;;;;;;5093936;28;20046;-85
2022/01/20 01:58:04;;;;;;;25.15;16.67;;;8.90;89.80;;;;;;5083291;28;20050;-87
2022/01/20 02:01:09;;;;;;;25.88;16.33;;;8.90;90.20;;;;;;5083178;28;20493;-87
2022/01/20 02:04:19;;;;;;;25.98;16.90;;;9.00;89.90;;;;;;5082969;28;20042;-85
2022/01/20 02:20:57;;;;;;;24.75;16.52;;;9.20;88.80;;;;;;5096279;28;20058;-85
2022/01/20 02:24:01;;;;;;;24.35;16.70;;;9.20;89.30;;;;;;5105885;28;20038;-85
2022/01/20 02:27:07;;;;;;;24.98;17.27;;;9.20;90.00;;;;;;5095338;28;20046;-86
2022/01/20 02:30:19;;;;;;;26.42;17.50;;;9.20;90.10;;;;;;5091186;28;20106;-86
2022/01/20 02:33:26;;;;;;;29.35;18.35;;;9.20;90.50;;;;;;5106000;28;20062;-87
2022/01/20 02:36:31;;;;;;;18.38;11.82;;;9.20;90.90;;;;;;5095457;28;20043;-86
2022/01/20 02:46:10;;;;;;;17.67;9.88;;;9.50;89.60;;;;;;5095106;28;20042;-86
2022/01/20 02:49:16;;;;;;;12.90;8.38;;;9.70;89.50;;;;;;5095228;28;20046;-85
2022/01/20 02:52:22;;;;;;;12.80;8.55;;;9.70;89.00;;;;;;5083710;28;20050;-84
2022/01/20 02:55:26;;;;;;;35.80;20.98;;;9.70;89.00;;;;;;5084043;28;20042;-85
2022/01/20 02:58:32;;;;;;;34.25;22.30;;;9.80;90.10;;;;;;5083960;28;20046;-85
2022/01/20 03:01:36;;;;;;;30.35;21.13;;;9.60;90.00;;;;;;5085004;28;20046;-85
2022/01/20 03:04:41;;;;;;;40.05;24.00;;;9.50;90.40;;;;;;5095695;28;20034;-85
2022/01/20 03:07:54;;;;;;;32.15;22.58;;;9.40;90.50;;;;;;5083628;28;20050;-85
2022/01/20 03:10:59;;;;;;;39.83;22.30;;;9.40;90.70;;;;;;5083788;28;20094;-85
2022/01/20 03:14:04;;;;;;;33.65;22.27;;;9.30;90.90;;;;;;5085223;28;20058;-85
2022/01/20 03:17:09;;;;;;;34.92;23.13;;;9.30;91.20;;;;;;5096345;28;20098;-85
2022/01/20 03:20:14;;;;;;;35.22;21.67;;;9.20;91.30;;;;;;5073628;28;20058;-85
2022/01/20 03:23:18;;;;;;;37.28;22.55;;;9.20;91.50;;;;;;5096154;28;20038;-85
2022/01/20 03:26:22;;;;;;;34.33;22.90;;;9.30;91.90;;;;;;5083867;28;20038;-86
2022/01/20 03:29:27;;;;;;;36.72;22.77;;;9.30;91.90;;;;;;5110275;28;20042;-86
2022/01/20 03:32:33;;;;;;;32.70;22.15;;;9.30;92.10;;;;;;5097105;28;20058;-86
2022/01/20 03:35:40;;;;;;;26.92;18.92;;;9.30;92.00;;;;;;5097708;28;20049;-87
2022/01/20 03:39:04;;;;;;;28.23;18.75;;;9.30;91.90;;;;;;5111961;28;20391;-85
2022/01/20 03:42:09;;;;;;;30.25;18.35;;;9.20;91.90;;;;;;5090021;28;20046;-86
2022/01/20 03:45:19;;;;;;;25.48;16.73;;;9.30;91.80;;;;;;5102498;28;20031;-86
2022/01/20 03:48:28;;;;;;;24.88;16.70;;;9.30;91.60;;;;;;5090401;28;20058;-86
2022/01/20 03:51:41;;;;;;;21.40;15.30;;;9.20;91.50;;;;;;5081169;28;20046;-84
2022/01/20 03:54:46;;;;;;;22.92;15.25;;;9.20;91.70;;;;;;5089940;28;20403;-85
2022/01/20 03:58:04;;;;;;;31.52;19.85;;;9.30;91.80;;;;;;5113904;28;20101;-85
2022/01/20 04:01:15;;;;;;;36.78;21.73;;;9.30;92.10;;;;;;5114207;28;20034;-86
2022/01/20 04:04:45;;;;;;;33.78;19.73;;;9.30;92.40;;;;;;5104042;28;20031;-87
2022/01/20 04:07:57;;;;;;;28.73;16.67;;;9.20;92.40;;;;;;5099735;28;20046;-86
2022/01/20 04:11:08;;;;;;;27.50;15.85;;;9.20;92.50;;;;;;5102026;28;20030;-87
2022/01/20 04:14:13;;;;;;;27.33;17.13;;;9.20;92.50;;;;;;5100485;28;20046;-85
2022/01/20 04:17:19;;;;;;;27.60;17.05;;;9.20;92.60;;;;;;5089510;28;20046;-86
2022/01/20 04:20:24;;;;;;;28.80;17.17;;;9.30;92.60;;;;;;5102333;28;20417;-86
2022/01/20 04:23:30;;;;;;;25.88;15.98;;;9.30;92.60;;;;;;5102845;28;20046;-86
2022/01/20 04:26:37;;;;;;;21.33;12.35;;;9.30;92.60;;;;;;5102675;28;20030;-87
2022/01/20 04:29:44;;;;;;;19.38;12.85;;;9.40;92.20;;;;;;5102643;28;20489;-85
2022/01/20 04:32:49;;;;;;;28.58;14.27;;;9.50;92.20;;;;;;5114712;28;20047;-87
2022/01/20 04:35:54;;;;;;;18.90;12.88;;;9.50;92.20;;;;;;5103250;28;20038;-87
2022/01/20 04:39:00;;;;;;;17.83;11.20;;;9.60;92.10;;;;;;5101852;28;20034;-87
2022/01/20 04:42:07;;;;;;;16.40;9.90;;;9.60;92.20;;;;;;5099864;28;20039;-87
2022/01/20 04:45:16;;;;;;;17.55;9.30;;;9.70;92.10;;;;;;5091036;28;20434;-86
2022/01/20 04:48:32;;;;;;;13.13;8.43;;;9.80;91.90;;;;;;5090951;28;20042;-85
2022/01/20 04:58:25;;;;;;;16.40;9.52;;;9.90;91.70;;;;;;5113431;28;20042;-85
2022/01/20 05:01:30;;;;;;;12.90;8.27;;;9.80;92.00;;;;;;5086223;28;20040;-87
2022/01/20 05:04:47;;;;;;;12.25;7.50;;;9.80;91.80;;;;;;5096191;28;20046;-86
2022/01/20 05:08:21;;;;;;;14.18;7.78;;;9.80;91.60;;;;;;5112355;28;20046;-85
2022/01/20 05:11:26;;;;;;;12.30;8.25;;;9.90;91.60;;;;;;5083609;28;20513;-86
2022/01/20 05:14:30;;;;;;;12.32;8.43;;;9.90;91.60;;;;;;5082931;28;20051;-86
2022/01/20 05:17:34;;;;;;;13.80;7.50;;;9.90;91.90;;;;;;5081942;28;20043;-86
2022/01/20 05:20:39;;;;;;;13.73;7.78;;;9.90;91.70;;;;;;5071266;28;20038;-86
2022/01/20 05:23:43;;;;;;;13.93;7.82;;;9.70;91.80;;;;;;5081313;28;20042;-85
2022/01/20 05:26:52;;;;;;;13.82;7.40;;;9.70;92.00;;;;;;5114955;28;20043;-86
2022/01/20 05:29:58;;;;;;;14.35;8.23;;;9.70;92.10;;;;;;5096207;28;20028;-86
2022/01/20 05:33:03;;;;;;;12.68;8.63;;;9.60;92.00;;;;;;5088504;28;20051;-86
2022/01/20 05:36:10;;;;;;;41.33;9.82;;;9.60;92.30;;;;;;5102943;28;20051;-85
2022/01/20 05:39:17;;;;;;;14.63;9.50;;;9.50;92.50;;;;;;5091891;28;20012;-85
2022/01/20 05:42:23;;;;;;;13.85;7.95;;;9.50;92.50;;;;;;5093198;28;20046;-85
2022/01/20 05:45:43;;;;;;;16.95;7.75;;;9.40;92.80;;;;;;5118039;28;20134;-86
2022/01/20 05:48:49;;;;;;;11.60;7.40;;;9.40;92.80;;;;;;5091477;28;20051;-86
2022/01/20 05:52:19;;;;;;;10.95;7.28;;;9.50;92.90;;;;;;5103382;28;20040;-84
2022/01/20 05:55:23;;;;;;;13.55;6.32;;;9.50;92.90;;;;;;5090873;28;20043;-85
2022/01/20 05:58:28;;;;;;;11.93;8.13;;;9.50;93.00;;;;;;5095526;28;20038;-86
2022/01/20 06:01:37;;;;;;;10.05;6.43;;;9.50;93.10;;;;;;5097567;28;20050;-85
2022/01/20 06:04:42;;;;;;;14.55;6.72;;;9.50;93.40;;;;;;5097603;28;20050;-84
2022/01/20 06:07:50;;;;;;;11.50;5.80;;;9.50;93.60;;;;;;5099819;28;20042;-86
2022/01/20 06:10:55;;;;;;;11.02;5.60;;;9.60;93.80;;;;;;5097640;28;20046;-85
2022/01/20 06:14:04;;;;;;;9.88;5.50;;;9.60;93.80;;;;;;5081490;28;20050;-84
2022/01/20 06:17:08;;;;;;;11.75;6.32;;;9.60;94.00;;;;;;5107303;28;20032;-86
2022/01/20 06:20:12;;;;;;;12.65;6.30;;;9.60;94.50;;;;;;5093236;28;20042;-84
2022/01/20 06:23:26;;;;;;;15.73;7.78;;;9.50;94.70;;;;;;5093988;28;20058;-84
2022/01/20 06:26:33;;;;;;;13.05;7.60;;;9.50;94.90;;;;;;5079685;28;20055;-83
2022/01/20 06:29:40;;;;;;;17.80;8.57;;;9.50;95.00;;;;;;5079434;28;20039;-85
2022/01/20 06:32:44;;;;;;;17.20;8.77;;;9.50;95.20;;;;;;5058673;28;20058;-85
2022/01/20 06:35:58;;;;;;;13.57;8.95;;;9.50;95.30;;;;;;5082404;28;20046;-84
2022/01/20 06:39:05;;;;;;;15.23;8.55;;;9.60;95.50;;;;;;5079752;28;20050;-84
2022/01/20 06:42:15;;;;;;;15.67;9.10;;;9.60;95.60;;;;;;5081529;28;20046;-84
2022/01/20 06:45:21;;;;;;;14.27;8.52;;;9.50;95.70;;;;;;5078595;28;20047;-84
2022/01/20 06:48:28;;;;;;;16.83;8.52;;;9.50;96.00;;;;;;5091948;28;20039;-83
2022/01/20 06:52:03;;;;;;;18.15;9.13;;;9.50;96.30;;;;;;5084841;28;20046;-83
2022/01/20 06:55:11;;;;;;;15.63;7.57;;;9.50;96.50;;;;;;5092932;28;20412;-83
2022/01/20 06:58:21;;;;;;;21.30;9.00;;;9.50;96.50;;;;;;5102949;28;20040;-84
2022/01/20 07:01:27;;;;;;;13.63;8.70;;;9.50;96.50;;;;;;5092397;28;20042;-83
2022/01/20 07:04:32;;;;;;;14.05;8.77;;;9.60;96.60;;;;;;5055488;28;20059;-83
2022/01/20 07:07:39;;;;;;;17.13;9.40;;;9.50;96.50;;;;;;5056732;28;20046;-84
2022/01/20 07:10:51;;;;;;;15.75;9.13;;;9.60;96.60;;;;;;5089976;28;20047;-84
2022/01/20 07:13:55;;;;;;;17.73;8.93;;;9.60;96.70;;;;;;5091634;28;20059;-83
2022/01/20 07:17:00;;;;;;;13.48;9.40;;;9.60;96.60;;;;;;5083581;28;20043;-84
2022/01/20 07:20:08;;;;;;;14.20;8.80;;;9.60;96.60;;;;;;5083273;28;20054;-83
2022/01/20 07:23:24;;;;;;;20.23;8.98;;;9.70;96.60;;;;;;5093361;28;20071;-87
2022/01/20 07:26:36;;;;;;;17.05;9.63;;;9.70;96.70;;;;;;5073060;28;20514;-79
2022/01/20 07:30:00;;;;;;;14.02;9.55;;;9.80;96.80;;;;;;5095782;28;20043;-77
2022/01/20 07:33:05;;;;;;;21.70;8.55;;;9.90;96.50;;;;;;5083010;28;20067;-79
2022/01/20 07:36:09;;;;;;;17.88;9.82;;;10.10;96.40;;;;;;5071601;28;20522;-75
2022/01/20 07:39:14;;;;;;;20.50;11.05;;;10.10;96.40;;;;;;5095670;28;20051;-77
2022/01/20 07:42:19;;;;;;;25.75;10.52;;;10.30;96.40;;;;;;5083482;28;20047;-77
2022/01/20 07:45:36;;;;;;;25.65;10.52;;;10.40;96.20;;;;;;5073222;28;20048;-78
2022/01/20 07:49:06;;;;;;;13.98;9.05;;;10.60;96.00;;;;;;5095376;28;20047;-79
2022/01/20 07:52:12;;;;;;;19.25;10.15;;;10.80;95.70;;;;;;5071155;28;20047;-79
2022/01/20 07:55:17;;;;;;;14.93;9.63;;;10.90;95.00;;;;;;5072194;28;20043;-82
2022/01/20 07:58:21;;;;;;;12.52;8.73;;;11.00;94.90;;;;;;5082847;28;20141;-78
2022/01/20 08:01:25;;;;;;;13.68;9.57;;;11.10;95.10;;;;;;5095231;28;20607;-78
2022/01/20 08:04:43;;;;;;;21.27;10.85;;;11.20;95.00;;;;;;5095881;28;20051;-79
2022/01/20 08:07:48;;;;;;;13.95;9.20;;;11.30;94.50;;;;;;5084414;28;20051;-82
2022/01/20 08:10:53;;;;;;;11.38;8.90;;;11.40;94.60;;;;;;5086333;28;20047;-80
2022/01/20 08:13:57;;;;;;;20.77;10.10;;;11.40;94.60;;;;;;5072192;28;20511;-79
2022/01/20 08:17:01;;;;;;;18.63;12.00;;;11.50;94.50;;;;;;5071939;28;20063;-79
2022/01/20 08:20:09;;;;;;;20.38;10.60;;;11.60;94.40;;;;;;5071660;28;20051;-79
2022/01/20 08:23:13;;;;;;;14.30;8.77;;;11.70;94.30;;;;;;5072584;28;20038;-77
2022/01/20 08:26:19;;;;;;;12.23;8.13;;;11.80;94.10;;;;;;5071165;28;20063;-77
2022/01/20 08:29:23;;;;;;;12.68;7.40;;;12.00;94.20;;;;;;5072631;28;20681;-82
2022/01/20 08:32:29;;;;;;;8.40;6.55;;;12.10;94.10;;;;;;5084826;28;20047;-79
2022/01/20 08:35:41;;;;;;;11.18;6.97;;;12.30;93.90;;;;;;5084102;28;20039;-78
2022/01/20 08:38:48;;;;;;;19.80;10.25;;;12.50;93.60;;;;;;5087725;28;20499;-83
2022/01/20 08:41:52;;;;;;;19.73;8.95;;;12.70;93.30;;;;;;5084361;28;20522;-80
2022/01/20 08:44:57;;;;;;;14.30;7.68;;;12.90;92.60;;;;;;5083889;28;20054;-82
2022/01/20 08:48:02;;;;;;;10.80;7.68;;;13.10;92.50;;;;;;5082818;28;20039;-79
2022/01/20 08:51:26;;;;;;;15.35;8.32;;;13.30;91.90;;;;;;5074010;28;20051;-78
2022/01/20 08:54:47;;;;;;;11.90;7.35;;;13.50;91.20;;;;;;5094107;28;20043;-79
2022/01/20 08:58:06;;;;;;;13.15;8.35;;;13.60;91.20;;;;;;5082929;28;20035;-83
2022/01/20 09:01:13;;;;;;;16.50;8.02;;;13.60;90.90;;;;;;5083318;28;20059;-79
2022/01/20 09:04:17;;;;;;;16.20;7.50;;;13.50;90.80;;;;;;5094510;28;20035;-78
2022/01/20 09:07:45;;;;;;;12.30;6.20;;;13.40;90.90;;;;;;5094335;28;20047;-78
2022/01/20 09:10:54;;;;;;;15.85;7.43;;;13.30;90.90;;;;;;5081696;28;20051;-75
2022/01/20 09:17:30;;;;;;;9.82;2.83;;;13.70;91.10;;;;;;5087996;28;20043;-79
2022/01/20 09:20:39;;;;;;;8.85;3.22;;;14.20;90.40;;;;;;5086806;28;20404;-84
2022/01/20 09:23:43;;;;;;;5.30;2.47;;;14.60;90.10;;;;;;5090193;28;20036;-84
2022/01/20 09:26:47;;;;;;;3.85;2.28;;;14.80;90.00;;;;;;5081918;28;20043;-79
2022/01/20 09:29:53;;;;;;;6.75;3.00;;;14.90;90.20;;;;;;5080487;28;20047;-75
2022/01/20 09:33:12;;;;;;;6.00;2.92;;;14.80;90.30;;;;;;5080860;28;20134;-81
2022/01/20 09:36:16;;;;;;;9.27;3.42;;;14.80;90.30;;;;;;5083690;28;20046;-79
2022/01/20 09:39:21;;;;;;;14.30;4.57;;;14.90;90.70;;;;;;5069602;28;20047;-78
2022/01/20 09:42:36;;;;;;;10.80;3.90;;;15.00;90.80;;;;;;5083533;28;20110;-78
2022/01/20 09:45:42;;;;;;;10.07;4.18;;;15.00;91.10;;;;;;5083277;28;20043;-78
2022/01/20 09:48:46;;;;;;;10.45;4.30;;;15.00;92.10;;;;;;5081401;28;20043;-75
2022/01/20 09:52:03;;;;;;;9.57;3.63;;;14.90;92.20;;;;;;5080897;28;20043;-77
2022/01/20 09:55:17;;;;;;;6.65;3.47;;;14.70;92.60;;;;;;5082044;28;20055;-79
2022/01/20 09:58:21;;;;;;;7.75;3.08;;;14.60;93.10;;;;;;5083442;28;20043;-80
2022/01/20 10:01:50;;;;;;;6.93;3.15;;;14.40;93.00;;;;;;5080847;28;20050;-77
2022/01/20 10:05:03;;;;;;;5.90;3.10;;;14.20;93.50;;;;;;5080496;28;20043;-79
2022/01/20 10:08:16;;;;;;;14.25;3.53;;;14.00;93.40;;;;;;5080510;28;20035;-74
2022/01/20 10:11:40;;;;;;;9.98;3.65;;;13.90;93.90;;;;;;5070941;28;20391;-79
2022/01/20 10:15:07;;;;;;;13.73;3.67;;;13.70;94.60;;;;;;5079185;28;20059;-78
2022/01/20 10:18:23;;;;;;;17.55;3.95;;;13.60;94.70;;;;;;5092452;28;20047;-77
2022/01/20 10:21:41;;;;;;;10.95;4.05;;;13.40;95.20;;;;;;5079724;28;20051;-78
2022/01/20 10:25:09;;;;;;;26.10;5.90;;;13.30;96.10;;;;;;5092140;28;20066;-80
2022/01/20 10:28:57;;;;;;;17.05;5.93;;;13.20;97.00;;;;;;5091615;28;20043;-78
2022/01/20 10:32:04;;;;;;;13.80;5.50;;;13.00;98.20;;;;;;5079070;28;20051;-78
2022/01/20 10:35:10;;;;;;;14.00;5.65;;;12.90;99.00;;;;;;5078850;28;20510;-79
2022/01/20 10:38:16;;;;;;;13.02;5.85;;;12.80;99.50;;;;;;5078662;28;20419;-75
2022/01/20 10:41:38;;;;;;;15.60;6.15;;;12.60;99.90;;;;;;5078943;28;20051;-80
2022/01/20 10:44:53;;;;;;;17.52;6.78;;;12.50;99.90;;;;;;5079026;28;20050;-79
2022/01/20 10:47:59;;;;;;;17.30;6.75;;;12.40;99.90;;;;;;5091312;28;20051;-82
2022/01/20 10:51:19;;;;;;;14.15;6.30;;;12.30;99.90;;;;;;5091543;28;20514;-81
2022/01/20 10:54:38;;;;;;;23.50;9.75;;;12.30;99.90;;;;;;5079001;28;20055;-79
2022/01/20 10:57:43;;;;;;;14.82;7.50;;;12.20;99.90;;;;;;5078903;28;20384;-75
2022/01/20 11:00:51;;;;;;;18.17;7.95;;;12.20;99.90;;;;;;5078868;28;20050;-75
2022/01/20 11:03:58;;;;;;;19.67;9.38;;;12.10;99.90;;;;;;5078518;28;20044;-75
2022/01/20 11:07:06;;;;;;;17.95;9.02;;;12.10;99.90;;;;;;5078570;28;20043;-75
2022/01/20 11:10:14;;;;;;;24.58;13.07;;;12.10;99.90;;;;;;5090971;28;20043;-77
2022/01/20 11:13:25;;;;;;;25.40;11.80;;;12.10;99.90;;;;;;5091057;28;20415;-76
2022/01/20 11:16:38;;;;;;;22.17;12.73;;;12.10;99.90;;;;;;5078660;28;20035;-77
2022/01/20 11:19:42;;;;;;;24.53;13.40;;;12.00;99.90;;;;;;5078938;28;20051;-78
2022/01/20 11:23:07;;;;;;;27.25;14.75;;;12.00;99.90;;;;;;5078674;28;20039;-80
2022/01/20 11:26:35;;;;;;;32.22;14.57;;;12.00;99.90;;;;;;5091266;28;20039;-77
2022/01/20 11:29:50;;;;;;;26.95;14.60;;;12.00;99.90;;;;;;5091479;28;20405;-78
2022/01/20 11:33:31;;;;;;;27.70;13.43;;;12.00;99.90;;;;;;5090757;28;20063;-76
2022/01/20 11:36:35;;;;;;;19.80;11.75;;;12.10;99.90;;;;;;5078083;28;20058;-77
2022/01/20 11:39:39;;;;;;;25.35;13.65;;;12.10;99.90;;;;;;5090855;28;20039;-75
2022/01/20 11:43:06;;;;;;;25.80;14.02;;;12.10;99.90;;;;;;5091091;28;20051;-81
2022/01/20 11:46:13;;;;;;;23.85;15.00;;;12.00;99.90;;;;;;5091355;28;20063;-78
2022/01/20 11:49:20;;;;;;;30.83;15.75;;;12.10;99.90;;;;;;5078219;28;20043;-76
2022/01/20 11:52:26;;;;;;;23.35;14.80;;;12.00;99.90;;;;;;5090715;28;20058;-75
2022/01/20 11:55:30;;;;;;;26.40;15.40;;;12.00;99.90;;;;;;5090773;28;20518;-77
2022/01/20 11:58:34;;;;;;;32.20;15.80;;;12.10;99.90;;;;;;5090347;28;20039;-78
2022/01/20 12:01:44;;;;;;;24.08;14.57;;;12.20;99.90;;;;;;5093229;28;20043;-79
2022/01/20 12:04:51;;;;;;;24.23;14.80;;;12.20;99.90;;;;;;5093483;28;20043;-79
2022/01/20 12:08:10;;;;;;;28.98;15.57;;;12.30;99.90;;;;;;5081299;28;20047;-79
2022/01/20 12:11:16;;;;;;;30.23;15.50;;;12.30;99.90;;;;;;5093974;28;20051;-81
2022/01/20 12:14:35;;;;;;;31.25;14.85;;;12.40;99.90;;;;;;5069923;28;20047;-80
2022/01/20 12:17:41;;;;;;;27.42;14.18;;;12.40;99.90;;;;;;5094931;28;20487;-81
2022/01/20 12:20:46;;;;;;;22.80;11.43;;;12.30;99.90;;;;;;5094677;28;20059;-81
2022/01/20 12:23:53;;;;;;;23.13;11.90;;;12.30;99.90;;;;;;5094759;28;20047;-80
2022/01/20 12:26:58;;;;;;;22.15;11.52;;;12.30;99.90;;;;;;5082134;28;20047;-81
2022/01/20 12:30:02;;;;;;;19.73;11.68;;;12.30;99.90;;;;;;5082391;28;20047;-81
2022/01/20 12:33:12;;;;;;;19.45;10.90;;;12.30;99.90;;;;;;5094115;28;20399;-80
2022/01/20 12:36:17;;;;;;;16.95;8.88;;;12.40;99.90;;;;;;5094380;28;20502;-79
2022/01/20 12:39:28;;;;;;;18.52;10.05;;;12.50;99.90;;;;;;5082569;28;20391;-81
2022/01/20 12:42:34;;;;;;;19.05;12.05;;;12.50;99.90;;;;;;5070444;28;20043;-80
2022/01/20 12:45:56;;;;;;;18.50;11.93;;;12.50;99.90;;;;;;5093942;28;20391;-82
2022/01/20 12:49:21;;;;;;;19.55;13.40;;;12.40;99.90;;;;;;5093784;28;20051;-80
2022/01/20 12:52:27;;;;;;;33.30;23.25;;;12.30;99.90;;;;;;5093601;28;20427;-81
2022/01/20 12:55:30;;;;;;;33.58;23.40;;;12.10;99.90;;;;;;5094041;28;20047;-82
2022/01/20 12:58:50;;;;;;;37.00;25.08;;;12.00;99.90;;;;;;5093311;28;20043;-81
2022/01/20 13:01:57;;;;;;;34.05;21.88;;;12.00;99.90;;;;;;5093829;28;20047;-82
2022/01/20 13:05:04;;;;;;;35.25;21.67;;;11.90;99.90;;;;;;5094438;28;20039;-80
2022/01/20 13:08:09;;;;;;;30.23;18.73;;;11.90;99.90;;;;;;5093363;28;20046;-81
2022/01/20 13:11:18;;;;;;;31.10;21.90;;;11.90;99.90;;;;;;5093344;28;20039;-79
2022/01/20 13:14:41;;;;;;;33.03;23.67;;;11.90;99.90;;;;;;5080886;28;20055;-80
2022/01/20 13:17:48;;;;;;;33.65;23.30;;;11.80;99.90;;;;;;5093143;28;20039;-81
2022/01/20 13:20:58;;;;;;;34.70;21.85;;;11.90;99.90;;;;;;5092942;28;20051;-81
2022/01/20 13:24:06;;;;;;;31.17;22.58;;;11.80;99.90;;;;;;5093050;28;20039;-81
2022/01/20 13:27:12;;;;;;;35.15;22.58;;;11.80;99.90;;;;;;5092711;28;20040;-79
2022/01/20 13:30:36;;;;;;;34.38;20.52;;;11.80;99.90;;;;;;5093381;28;20043;-81
2022/01/20 13:33:40;;;;;;;32.42;20.63;;;11.90;99.90;;;;;;5092084;28;20051;-76
2022/01/20 13:36:53;;;;;;;26.02;19.13;;;11.80;99.90;;;;;;5092355;28;20047;-75
2022/01/20 13:39:59;;;;;;;28.23;19.52;;;11.80;99.90;;;;;;5092606;28;20054;-79
2022/01/20 13:46:21;;;;;;;18.33;11.20;;;11.90;99.90;;;;;;5092470;28;20047;-78
2022/01/20 13:49:25;;;;;;;16.70;7.40;;;12.00;99.90;;;;;;5092672;28;20051;-79
2022/01/20 13:52:38;;;;;;;13.13;5.82;;;11.90;99.90;;;;;;5092552;28;20043;-81
2022/01/20 13:55:44;;;;;;;12.30;6.25;;;11.90;99.90;;;;;;5079446;28;20059;-79
2022/01/20 13:58:50;;;;;;;21.85;7.97;;;11.90;99.90;;;;;;5092423;28;20039;-80
2022/01/20 14:01:53;;;;;;;22.75;7.78;;;11.90;99.90;;;;;;5092806;28;20039;-78
2022/01/20 14:04:57;;;;;;;24.40;7.38;;;11.80;99.90;;;;;;5091861;28;20043;-78
2022/01/20 14:08:03;;;;;;;9.80;5.97;;;11.70;99.90;;;;;;5092068;28;20047;-78
2022/01/20 14:11:07;;;;;;;11.77;6.97;;;11.70;99.90;;;;;;5092494;28;20391;-79
2022/01/20 14:14:11;;;;;;;16.83;6.00;;;11.70;99.90;;;;;;5092713;28;20051;-78
2022/01/20 14:17:21;;;;;;;11.48;6.38;;;11.70;99.90;;;;;;5092679;28;20043;-79
2022/01/20 14:20:31;;;;;;;14.57;7.10;;;11.70;99.90;;;;;;5092266;28;20059;-78
2022/01/20 14:23:35;;;;;;;13.55;8.40;;;11.70;99.90;;;;;;5091211;28;20059;-78
2022/01/20 14:26:44;;;;;;;18.20;11.35;;;11.80;99.90;;;;;;5091870;28;20403;-78
2022/01/20 14:29:49;;;;;;;25.20;12.00;;;11.80;99.90;;;;;;5092764;28;20043;-77
2022/01/20 14:32:53;;;;;;;20.60;11.45;;;11.80;99.90;;;;;;5077213;28;20051;-77
2022/01/20 14:35:57;;;;;;;25.52;10.38;;;11.80;99.90;;;;;;5092140;28;20113;-79
2022/01/20 14:39:02;;;;;;;21.58;11.85;;;11.80;99.90;;;;;;5092720;28;20035;-78
2022/01/20 14:42:08;;;;;;;24.17;11.00;;;11.90;99.90;;;;;;5093033;28;20055;-85
2022/01/20 14:45:16;;;;;;;27.08;11.82;;;11.90;99.90;;;;;;5091672;28;20041;-80
2022/01/20 14:48:20;;;;;;;20.17;10.85;;;11.90;99.90;;;;;;5091650;28;20063;-79
2022/01/20 14:51:26;;;;;;;19.08;9.20;;;12.00;99.90;;;;;;5091195;28;20494;-76
2022/01/20 14:54:32;;;;;;;16.10;10.55;;;12.10;99.90;;;;;;5090986;28;20113;-78
2022/01/20 14:57:35;;;;;;;18.38;10.80;;;12.20;99.90;;;;;;5091632;28;20533;-77
2022/01/20 15:00:39;;;;;;;22.08;11.80;;;12.20;99.90;;;;;;5091740;28;20054;-78
2022/01/20 15:03:44;;;;;;;18.80;12.05;;;12.20;99.90;;;;;;5091311;28;20503;-79
2022/01/20 15:06:48;;;;;;;28.95;11.63;;;12.30;99.90;;;;;;5091343;28;20110;-77
2022/01/20 15:09:52;;;;;;;20.05;12.32;;;12.30;99.90;;;;;;5091632;28;20423;-80
2022/01/20 15:13:17;;;;;;;16.33;10.32;;;12.30;99.90;;;;;;5091085;28;20383;-78
2022/01/20 15:16:21;;;;;;;32.00;18.60;;;12.30;99.90;;;;;;5091143;28;20063;-76
2022/01/20 15:19:25;;;;;;;23.00;16.38;;;12.30;99.90;;;;;;5078868;28;20052;-76
2022/01/20 15:22:29;;;;;;;25.35;14.90;;;12.20;99.90;;;;;;5091547;28;20514;-76
2022/01/20 15:25:33;;;;;;;22.83;14.20;;;12.20;99.90;;;;;;5091167;28;20047;-76
2022/01/20 15:28:42;;;;;;;33.83;15.18;;;12.10;99.90;;;;;;5079132;28;20043;-78
2022/01/20 15:31:46;;;;;;;127.97;53.65;;;12.10;99.90;;;;;;5091245;28;20051;-75
2022/01/20 15:34:50;;;;;;;74.72;36.47;;;12.00;99.90;;;;;;5093544;28;20059;-79
2022/01/20 15:37:54;;;;;;;38.85;21.23;;;12.00;99.90;;;;;;5082159;28;20039;-76
2022/01/20 15:40:58;;;;;;;38.80;21.60;;;12.00;99.90;;;;;;5094694;28;20043;-78
2022/01/20 15:44:02;;;;;;;33.80;22.40;;;12.00;99.90;;;;;;5094844;28;20043;-75
2022/01/20 15:47:06;;;;;;;29.45;20.98;;;12.00;99.90;;;;;;5082118;28;20062;-77
2022/01/20 15:50:12;;;;;;;30.45;21.95;;;11.90;99.90;;;;;;5094741;28;20039;-77
2022/01/20 15:53:16;;;;;;;45.45;29.75;;;11.90;99.90;;;;;;5094501;28;20043;-78
2022/01/20 15:56:20;;;;;;;42.90;28.20;;;11.80;99.90;;;;;;5094531;28;20043;-78
2022/01/20 15:59:24;;;;;;;44.13;30.50;;;11.80;99.90;;;;;;5094798;28;20055;-78
2022/01/20 16:02:28;;;;;;;73.88;44.15;;;11.70;99.90;;;;;;5094758;28;20529;-77
2022/01/20 16:05:32;;;;;;;59.63;39.58;;;11.70;99.90;;;;;;5094138;28;20051;-75
2022/01/20 16:08:36;;;;;;;52.63;32.88;;;11.70;99.90;;;;;;5094846;28;20047;-77
2022/01/20 16:11:41;;;;;;;59.05;36.95;;;11.60;99.90;;;;;;5094293;28;20043;-76
2022/01/20 16:14:45;;;;;;;54.58;34.08;;;11.60;99.90;;;;;;5094166;28;20103;-75
2022/01/20 16:17:49;;;;;;;47.03;28.25;;;11.60;99.90;;;;;;5093696;28;20114;-76
2022/01/20 16:20:53;;;;;;;42.83;27.45;;;11.60;99.90;;;;;;5093780;28;20046;-77
2022/01/20 16:23:57;;;;;;;40.42;26.88;;;11.60;99.90;;;;;;5093977;28;20043;-75
2022/01/20 16:27:01;;;;;;;46.22;33.25;;;11.60;99.90;;;;;;5093843;28;20379;-75
2022/01/20 16:30:06;;;;;;;44.30;32.08;;;11.60;99.90;;;;;;5093758;28;20060;-76
2022/01/20 16:33:10;;;;;;;47.95;34.95;;;11.60;99.90;;;;;;5093730;28;20055;-74
2022/01/20 16:36:14;;;;;;;49.55;33.80;;;11.40;99.90;;;;;;5093345;28;20392;-73
2022/01/20 16:39:18;;;;;;;62.10;37.95;;;11.50;99.90;;;;;;5093632;28;20059;-72
2022/01/20 16:42:24;;;;;;;56.20;39.05;;;11.50;99.90;;;;;;5093272;28;20478;-73
2022/01/20 16:45:28;;;;;;;61.30;35.70;;;11.50;99.90;;;;;;5092407;28;20039;-73
2022/01/20 16:48:32;;;;;;;47.75;35.60;;;11.40;99.90;;;;;;5093477;28;20043;-73
2022/01/20 16:51:37;;;;;;;49.28;36.40;;;11.40;99.90;;;;;;5093302;28;20039;-75
2022/01/20 16:54:41;;;;;;;58.53;40.05;;;11.40;99.90;;;;;;5093424;28;20071;-77
2022/01/20 16:57:46;;;;;;;71.90;48.67;;;11.40;99.90;;;;;;5093773;28;20510;-72
2022/01/20 17:00:50;;;;;;;62.60;39.83;;;11.50;99.90;;;;;;5092962;28;20636;-72
2022/01/20 17:03:54;;;;;;;42.50;27.77;;;11.50;99.90;;;;;;5092915;28;20400;-73
2022/01/20 17:06:58;;;;;;;42.83;23.98;;;11.50;99.90;;;;;;5093181;28;20043;-74
2022/01/20 17:10:02;;;;;;;38.90;25.13;;;11.60;99.90;;;;;;5092956;28;20044;-74